createdAt,value
2019-04-03T00:04:57.799Z,7.30
2019-04-03T00:10:01.784Z,7.30
2019-04-03T00:15:06.471Z,7.20
2019-04-03T00:20:09.379Z,7.10
2019-04-03T00:25:13.126Z,7.10
2019-04-03T00:30:16.946Z,7.20
2019-04-03T00:35:23.205Z,7.20
2019-04-03T00:40:26.429Z,7.30
2019-04-03T00:45:30.211Z,7.30
2019-04-03T00:50:33.922Z,7.40
2019-04-03T00:55:37.696Z,7.40
2019-04-03T01:00:41.688Z,7.30
2019-04-03T01:05:45.473Z,7.20
2019-04-03T01:10:49.627Z,7.10
2019-04-03T01:15:53.647Z,6.90
2019-04-03T01:20:57.662Z,6.70
2019-04-03T01:26:01.647Z,6.60
2019-04-03T01:31:05.378Z,6.50
2019-04-03T01:36:09.527Z,6.50
2019-04-03T01:41:13.743Z,6.50
2019-04-03T01:46:18.187Z,6.50
2019-04-03T01:51:21.960Z,6.50
2019-04-03T01:56:26.002Z,6.40
2019-04-03T02:01:30.110Z,6.40
2019-04-03T02:06:34.111Z,6.50
2019-04-03T02:11:38.342Z,6.70
2019-04-03T02:16:42.665Z,6.90
2019-04-03T02:21:46.434Z,7.00
2019-04-03T02:26:50.686Z,7.20
2019-04-03T02:31:54.435Z,7.30
2019-04-03T02:36:58.950Z,7.40
2019-04-03T02:42:02.441Z,7.40
2019-04-03T02:47:06.590Z,7.50
2019-04-03T02:52:10.403Z,7.60
2019-04-03T02:57:17.369Z,7.60
2019-04-03T03:02:20.167Z,7.60
2019-04-03T03:07:24.582Z,7.70
2019-04-03T03:12:28.734Z,7.70
2019-04-03T03:17:32.870Z,7.70
2019-04-03T03:22:36.847Z,7.80
2019-04-03T03:27:42.033Z,7.90
2019-04-03T03:32:46.355Z,8.00
2019-04-03T03:37:50.770Z,8.10
2019-04-03T03:42:54.672Z,8.10
2019-04-03T03:47:59.088Z,7.90
2019-04-03T03:53:02.913Z,7.70
2019-04-03T03:58:11.078Z,7.50
2019-04-03T04:03:12.213Z,7.30
2019-04-03T04:08:16.167Z,7.30
2019-04-03T04:13:19.935Z,7.30
2019-04-03T04:18:24.909Z,7.40
2019-04-03T04:23:29.313Z,7.60
2019-04-03T04:28:33.136Z,7.70
2019-04-03T04:33:37.014Z,7.80
2019-04-03T04:38:41.011Z,7.80
2019-04-03T04:43:45.077Z,7.80
2019-04-03T04:48:51.305Z,7.80
2019-04-03T04:53:54.856Z,7.80
2019-04-03T04:58:58.811Z,7.80
2019-04-03T05:04:03.373Z,7.80
2019-04-03T05:09:07.290Z,7.80
2019-04-03T05:14:11.026Z,7.80
2019-04-03T05:19:18.497Z,7.80
2019-04-03T05:24:20.369Z,7.80
2019-04-03T05:29:24.102Z,7.80
2019-04-03T05:34:27.938Z,7.90
2019-04-03T05:39:31.767Z,7.90
2019-04-03T05:44:36.202Z,7.90
2019-04-03T05:49:40.047Z,7.90
2019-04-03T05:54:45.014Z,7.90
2019-04-03T05:59:58.631Z,7.90
2019-04-03T06:04:54.661Z,7.90
2019-04-03T06:09:59.160Z,7.90
2019-04-03T06:15:03.330Z,7.90
2019-04-03T06:20:10.354Z,8.00
2019-04-03T06:25:13.970Z,8.00
2019-04-03T06:30:18.392Z,8.00
2019-04-03T06:35:22.141Z,8.10
2019-04-03T06:40:26.770Z,8.20
2019-04-03T06:45:29.718Z,8.40
2019-04-03T06:50:33.758Z,8.50
2019-04-03T06:55:37.993Z,8.60
2019-04-03T07:00:42.493Z,8.70
2019-04-03T07:05:45.888Z,8.80
2019-04-03T07:10:54.947Z,9.10
2019-04-03T07:15:56.866Z,9.30
2019-04-03T07:21:01.211Z,9.60
2019-04-03T07:26:05.539Z,10.00
2019-04-03T07:31:10.700Z,9.80
2019-04-03T07:36:14.953Z,9.70
2019-04-03T07:41:18.723Z,9.60
2019-04-03T07:46:22.787Z,9.60
2019-04-03T07:51:26.687Z,9.50
2019-04-03T07:56:30.728Z,9.70
2019-04-03T08:01:34.767Z,9.90
2019-04-03T08:06:38.874Z,10.00
2019-04-03T08:11:44.414Z,10.00
2019-04-03T08:16:48.828Z,10.10
2019-04-03T08:21:53.111Z,10.00
2019-04-03T08:26:56.893Z,9.80
2019-04-03T08:32:00.620Z,9.70
2019-04-03T08:37:04.370Z,9.50
2019-04-03T08:42:08.154Z,9.50
2019-04-03T08:47:14.306Z,9.40
2019-04-03T08:52:17.920Z,9.40
2019-04-03T08:57:21.711Z,9.40
2019-04-03T09:02:25.515Z,9.30
2019-04-03T09:07:29.289Z,9.40
2019-04-03T09:12:33.289Z,9.40
2019-04-03T09:17:37.624Z,9.30
2019-04-03T09:22:41.743Z,9.30
2019-04-03T09:27:45.533Z,9.30
2019-04-03T09:32:49.763Z,9.30
2019-04-03T09:37:53.855Z,9.30
2019-04-03T09:42:58.634Z,9.30
2019-04-03T09:48:07.761Z,9.30
2019-04-03T09:53:11.651Z,9.20
2019-04-03T09:58:15.419Z,9.10
2019-04-03T10:03:20.852Z,9.10
2019-04-03T10:08:24.866Z,9.00
2019-04-03T10:13:29.142Z,9.00
2019-04-03T10:18:36.441Z,9.00
2019-04-03T10:23:40.526Z,9.10
2019-04-03T10:28:46.992Z,9.10
2019-04-03T10:33:49.832Z,9.20
2019-04-03T10:38:53.958Z,9.30
2019-04-03T10:43:58.183Z,9.40
2019-04-03T10:49:02.012Z,9.50
2019-04-03T10:54:05.835Z,9.50
2019-04-03T10:59:12.999Z,9.30
2019-04-03T11:04:15.408Z,9.10
2019-04-03T11:09:19.155Z,8.90
2019-04-03T11:14:23.015Z,8.70
2019-04-03T11:19:27.069Z,8.60
2019-04-03T11:24:30.859Z,8.50
2019-04-03T11:29:34.659Z,8.50
2019-04-03T11:34:39.109Z,8.60
2019-04-03T11:39:44.091Z,8.60
2019-04-03T11:44:48.565Z,8.60
2019-04-03T11:49:53.248Z,8.60
2019-04-03T11:54:57.459Z,8.50
2019-04-03T12:00:01.283Z,8.40
2019-04-03T12:05:06.115Z,8.30
2019-04-03T12:10:11.395Z,8.30
2019-04-03T12:15:16.416Z,8.40
2019-04-03T12:20:20.580Z,8.40
2019-04-03T12:25:25.247Z,8.50
2019-04-03T12:30:28.618Z,8.70
2019-04-03T12:35:31.927Z,9.10
2019-04-03T12:40:35.046Z,9.00
2019-04-03T12:45:37.943Z,8.70
2019-04-03T12:50:41.142Z,8.60
2019-04-03T12:55:45.652Z,8.40
2019-04-03T13:00:49.159Z,8.40
2019-04-03T13:05:52.117Z,8.40
2019-04-03T13:10:55.023Z,8.40
2019-04-03T13:15:58.235Z,8.40
2019-04-03T13:21:01.258Z,8.40
2019-04-03T13:26:04.429Z,8.50
2019-04-03T13:31:07.586Z,8.90
2019-04-03T13:36:10.633Z,9.10
2019-04-03T13:41:13.516Z,9.20
2019-04-03T13:46:16.741Z,9.20
2019-04-03T13:51:19.986Z,9.50
2019-04-03T13:56:24.401Z,9.50
2019-04-03T14:01:28.397Z,9.40
2019-04-03T14:06:31.457Z,9.30
2019-04-03T14:11:34.476Z,9.20
2019-04-03T14:16:37.465Z,9.20
2019-04-03T14:21:40.772Z,9.30
2019-04-03T14:26:45.713Z,9.30
2019-04-03T14:31:49.549Z,9.30
2019-04-03T14:36:53.150Z,9.30
2019-04-03T14:41:56.537Z,9.30
2019-04-03T14:46:59.908Z,9.30
2019-04-03T14:52:03.004Z,9.40
2019-04-03T14:57:16.071Z,9.60
2019-04-03T15:02:10.571Z,9.60
2019-04-03T15:07:13.714Z,9.60
2019-04-03T15:12:16.842Z,9.60
2019-04-03T15:17:19.835Z,9.50
2019-04-03T15:22:22.841Z,9.40
2019-04-03T15:27:28.144Z,9.40
2019-04-03T15:32:30.967Z,9.30
2019-04-03T15:37:33.893Z,9.40
2019-04-03T15:42:39.801Z,9.40
2019-04-03T15:47:45.100Z,9.40
2019-04-03T15:52:48.743Z,9.40
2019-04-03T15:57:52.536Z,9.40
2019-04-03T16:02:56.124Z,9.50
2019-04-03T16:07:59.078Z,9.50
2019-04-03T16:13:02.516Z,9.50
2019-04-03T16:18:07.105Z,9.40
2019-04-03T16:23:10.248Z,9.20
2019-04-03T16:28:14.278Z,9.10
2019-04-03T16:33:21.622Z,9.00
2019-04-03T16:38:23.097Z,8.90
2019-04-03T16:43:27.859Z,8.90
2019-04-03T16:48:32.142Z,8.80
2019-04-03T16:53:36.364Z,8.70
2019-04-03T16:58:40.358Z,8.70
2019-04-03T17:03:43.762Z,8.60
2019-04-03T17:08:46.731Z,8.60
2019-04-03T17:13:52.398Z,8.60
2019-04-03T17:18:54.935Z,8.60
2019-04-03T17:23:58.040Z,8.50
2019-04-03T17:29:05.099Z,8.50
2019-04-03T17:34:07.543Z,8.50
2019-04-03T17:39:10.501Z,8.40
2019-04-03T17:44:13.956Z,8.40
2019-04-03T17:49:17.528Z,8.30
2019-04-03T17:54:20.686Z,8.20
2019-04-03T17:59:24.614Z,8.20
2019-04-03T18:04:27.647Z,8.20
2019-04-03T18:09:30.924Z,8.10
2019-04-03T18:14:33.927Z,8.10
2019-04-03T18:19:38.010Z,8.10
2019-04-03T18:24:41.831Z,8.10
2019-04-03T18:29:45.017Z,8.00
2019-04-03T18:34:51.057Z,8.00
2019-04-03T18:39:52.866Z,8.00
2019-04-03T18:44:57.518Z,8.00
2019-04-03T18:50:02.903Z,8.00
2019-04-03T18:55:05.399Z,8.00
2019-04-03T19:00:08.510Z,8.00
2019-04-03T19:05:13.999Z,8.00
2019-04-03T19:10:18.215Z,7.90
2019-04-03T19:15:20.856Z,7.90
2019-04-03T19:20:24.079Z,7.90
2019-04-03T19:25:27.871Z,7.80
2019-04-03T19:30:32.021Z,7.80
2019-04-03T19:35:35.468Z,7.80
2019-04-03T19:40:40.282Z,7.80
2019-04-03T19:45:43.223Z,7.80
2019-04-03T19:50:46.233Z,7.70
2019-04-03T19:55:49.213Z,7.60
2019-04-03T20:00:52.504Z,7.60
2019-04-03T20:05:55.489Z,7.50
2019-04-03T20:10:58.409Z,7.40
2019-04-03T20:16:01.552Z,7.40
2019-04-03T20:21:04.603Z,7.40
2019-04-03T20:26:07.630Z,7.30
2019-04-03T20:31:10.564Z,7.30
2019-04-03T20:36:16.546Z,7.30
2019-04-03T20:41:18.364Z,7.30
2019-04-03T20:46:23.956Z,7.20
2019-04-03T20:51:26.833Z,7.20
2019-04-03T20:56:29.727Z,7.10
2019-04-03T21:01:35.287Z,7.10
2019-04-03T21:06:37.671Z,7.00
2019-04-03T21:11:40.651Z,7.00
2019-04-03T21:16:43.863Z,7.00
2019-04-03T21:21:46.770Z,6.90
2019-04-03T21:26:50.068Z,6.90
2019-04-03T21:31:53.030Z,6.80
2019-04-03T21:36:56.183Z,6.80
2019-04-03T21:41:59.063Z,6.70
2019-04-03T21:47:02.107Z,6.70
2019-04-03T21:52:05.018Z,6.70
2019-04-03T21:57:07.988Z,6.60
2019-04-03T22:07:43.506Z,6.60
2019-04-03T22:12:46.379Z,6.50
2019-04-03T22:17:52.402Z,6.50
2019-04-03T22:22:54.492Z,6.50
2019-04-03T22:27:57.450Z,6.50
2019-04-03T22:33:00.361Z,6.50
2019-04-03T22:38:05.366Z,6.50
2019-04-03T22:43:08.199Z,6.50
2019-04-03T22:48:11.118Z,6.50
2019-04-03T22:53:14.294Z,6.40
2019-04-03T22:58:18.969Z,6.40
2019-04-03T23:03:21.969Z,6.30
2019-04-03T23:08:25.797Z,6.20
2019-04-03T23:13:28.740Z,6.10
2019-04-03T23:18:31.980Z,6.10
2019-04-03T23:23:34.885Z,6.10
2019-04-03T23:28:37.801Z,6.00
2019-04-03T23:33:41.282Z,6.00
2019-04-03T23:38:44.238Z,6.00
2019-04-03T23:43:47.198Z,5.90
2019-04-03T23:48:50.179Z,5.90
2019-04-03T23:53:53.580Z,5.90
2019-04-03T23:58:56.825Z,5.90
